sensor_id;sensor_type;location;lat;lon;timestamp;P1;durP1;ratioP1;P2;durP2;ratioP2
39620;SDS011;25309;48.686;9.170;2023-02-28T00:01:11;3.17;;;1.83;;
39620;SDS011;25309;48.686;9.170;2023-02-28T00:03:38;4.07;;;2.10;;
39620;SDS011;25309;48.686;9.170;2023-02-28T00:06:06;3.13;;;2.00;;
39620;SDS011;25309;48.686;9.170;2023-02-28T00:08:33;4.80;;;2.27;;
39620;SDS011;25309;48.686;9.170;2023-02-28T00:11:01;3.27;;;2.10;;
39620;SDS011;25309;48.686;9.170;2023-02-28T00:13:30;3.13;;;2.00;;
39620;SDS011;25309;48.686;9.170;2023-02-28T00:15:58;4.07;;;2.30;;
39620;SDS011;25309;48.686;9.170;2023-02-28T00:18:27;2.97;;;2.10;;
39620;SDS011;25309;48.686;9.170;2023-02-28T00:20:56;4.40;;;2.10;;
39620;SDS011;25309;48.686;9.170;2023-02-28T00:23:23;4.17;;;2.47;;
39620;SDS011;25309;48.686;9.170;2023-02-28T00:25:51;3.70;;;2.40;;
39620;SDS011;25309;48.686;9.170;2023-02-28T00:28:18;4.53;;;2.30;;
39620;SDS011;25309;48.686;9.170;2023-02-28T00:30:46;3.93;;;2.20;;
39620;SDS011;25309;48.686;9.170;2023-02-28T00:33:14;5.17;;;2.60;;
39620;SDS011;25309;48.686;9.170;2023-02-28T00:35:41;5.00;;;2.50;;
39620;SDS011;25309;48.686;9.170;2023-02-28T00:38:08;5.70;;;2.63;;
39620;SDS011;25309;48.686;9.170;2023-02-28T00:40:35;4.10;;;2.10;;
39620;SDS011;25309;48.686;9.170;2023-02-28T00:43:02;4.37;;;2.40;;
39620;SDS011;25309;48.686;9.170;2023-02-28T00:45:30;3.63;;;2.13;;
39620;SDS011;25309;48.686;9.170;2023-02-28T00:47:58;4.83;;;2.30;;
39620;SDS011;25309;48.686;9.170;2023-02-28T00:50:25;3.40;;;1.90;;
39620;SDS011;25309;48.686;9.170;2023-02-28T00:52:52;4.07;;;2.40;;
39620;SDS011;25309;48.686;9.170;2023-02-28T00:55:19;3.53;;;2.20;;
39620;SDS011;25309;48.686;9.170;2023-02-28T00:57:47;3.23;;;1.97;;
39620;SDS011;25309;48.686;9.170;2023-02-28T01:00:14;3.17;;;2.20;;
39620;SDS011;25309;48.686;9.170;2023-02-28T01:02:41;4.60;;;2.10;;
39620;SDS011;25309;48.686;9.170;2023-02-28T01:05:10;3.43;;;1.90;;
39620;SDS011;25309;48.686;9.170;2023-02-28T01:07:37;3.80;;;2.07;;
39620;SDS011;25309;48.686;9.170;2023-02-28T01:10:04;4.77;;;2.40;;
39620;SDS011;25309;48.686;9.170;2023-02-28T01:12:32;4.40;;;2.43;;
39620;SDS011;25309;48.686;9.170;2023-02-28T01:14:59;4.20;;;2.20;;
39620;SDS011;25309;48.686;9.170;2023-02-28T01:17:26;3.17;;;2.20;;
39620;SDS011;25309;48.686;9.170;2023-02-28T01:19:53;3.27;;;2.13;;
39620;SDS011;25309;48.686;9.170;2023-02-28T01:22:21;5.23;;;2.40;;
39620;SDS011;25309;48.686;9.170;2023-02-28T01:24:49;3.10;;;2.20;;
39620;SDS011;25309;48.686;9.170;2023-02-28T01:27:16;3.33;;;2.23;;
39620;SDS011;25309;48.686;9.170;2023-02-28T01:29:42;3.37;;;2.20;;
39620;SDS011;25309;48.686;9.170;2023-02-28T01:32:09;4.67;;;2.30;;
39620;SDS011;25309;48.686;9.170;2023-02-28T01:34:36;4.97;;;2.53;;
39620;SDS011;25309;48.686;9.170;2023-02-28T01:37:03;3.93;;;2.40;;
39620;SDS011;25309;48.686;9.170;2023-02-28T01:39:32;4.90;;;2.53;;
39620;SDS011;25309;48.686;9.170;2023-02-28T01:41:58;3.60;;;2.60;;
39620;SDS011;25309;48.686;9.170;2023-02-28T01:47:30;5.10;;;2.60;;
39620;SDS011;25309;48.686;9.170;2023-02-28T01:50:00;3.87;;;2.47;;
39620;SDS011;25309;48.686;9.170;2023-02-28T01:52:31;4.73;;;2.80;;
39620;SDS011;25309;48.686;9.170;2023-02-28T01:55:01;4.40;;;2.67;;
39620;SDS011;25309;48.686;9.170;2023-02-28T01:57:32;4.10;;;2.60;;
39620;SDS011;25309;48.686;9.170;2023-02-28T02:00:05;6.03;;;2.60;;
39620;SDS011;25309;48.686;9.170;2023-02-28T02:02:38;4.23;;;2.60;;
39620;SDS011;25309;48.686;9.170;2023-02-28T02:05:08;4.47;;;2.50;;
39620;SDS011;25309;48.686;9.170;2023-02-28T02:07:38;3.93;;;2.60;;
39620;SDS011;25309;48.686;9.170;2023-02-28T02:10:10;4.17;;;2.77;;
39620;SDS011;25309;48.686;9.170;2023-02-28T02:12:53;4.37;;;2.73;;
39620;SDS011;25309;48.686;9.170;2023-02-28T02:15:38;3.17;;;2.30;;
39620;SDS011;25309;48.686;9.170;2023-02-28T02:18:09;4.17;;;2.70;;
39620;SDS011;25309;48.686;9.170;2023-02-28T02:20:57;4.87;;;2.90;;
39620;SDS011;25309;48.686;9.170;2023-02-28T02:23:50;4.33;;;2.63;;
39620;SDS011;25309;48.686;9.170;2023-02-28T02:26:45;4.60;;;2.83;;
39620;SDS011;25309;48.686;9.170;2023-02-28T02:29:26;4.17;;;2.80;;
39620;SDS011;25309;48.686;9.170;2023-02-28T02:32:25;4.27;;;2.80;;
39620;SDS011;25309;48.686;9.170;2023-02-28T02:35:11;4.47;;;2.50;;
39620;SDS011;25309;48.686;9.170;2023-02-28T02:37:42;3.97;;;2.80;;
39620;SDS011;25309;48.686;9.170;2023-02-28T02:40:13;5.67;;;3.03;;
39620;SDS011;25309;48.686;9.170;2023-02-28T02:42:46;5.20;;;2.97;;
39620;SDS011;25309;48.686;9.170;2023-02-28T02:45:18;5.27;;;3.00;;
39620;SDS011;25309;48.686;9.170;2023-02-28T02:47:50;4.00;;;2.63;;
39620;SDS011;25309;48.686;9.170;2023-02-28T02:50:21;5.10;;;2.70;;
39620;SDS011;25309;48.686;9.170;2023-02-28T02:52:57;3.80;;;2.70;;
39620;SDS011;25309;48.686;9.170;2023-02-28T02:55:29;5.10;;;3.00;;
39620;SDS011;25309;48.686;9.170;2023-02-28T02:58:01;5.13;;;3.37;;
39620;SDS011;25309;48.686;9.170;2023-02-28T03:00:31;4.00;;;2.70;;
39620;SDS011;25309;48.686;9.170;2023-02-28T03:03:02;4.33;;;2.83;;
39620;SDS011;25309;48.686;9.170;2023-02-28T03:05:33;5.67;;;3.20;;
39620;SDS011;25309;48.686;9.170;2023-02-28T03:08:05;5.23;;;3.20;;
39620;SDS011;25309;48.686;9.170;2023-02-28T03:10:34;4.37;;;3.07;;
39620;SDS011;25309;48.686;9.170;2023-02-28T03:16:04;5.03;;;2.93;;
39620;SDS011;25309;48.686;9.170;2023-02-28T03:18:51;4.60;;;2.80;;
39620;SDS011;25309;48.686;9.170;2023-02-28T03:21:27;5.03;;;3.10;;
39620;SDS011;25309;48.686;9.170;2023-02-28T03:23:59;4.30;;;2.90;;
39620;SDS011;25309;48.686;9.170;2023-02-28T03:26:31;5.80;;;3.30;;
39620;SDS011;25309;48.686;9.170;2023-02-28T03:29:02;4.17;;;2.83;;
39620;SDS011;25309;48.686;9.170;2023-02-28T03:31:35;4.67;;;2.93;;
39620;SDS011;25309;48.686;9.170;2023-02-28T03:34:06;4.53;;;3.13;;
39620;SDS011;25309;48.686;9.170;2023-02-28T03:36:41;5.33;;;3.30;;
39620;SDS011;25309;48.686;9.170;2023-02-28T03:39:12;4.40;;;3.03;;
39620;SDS011;25309;48.686;9.170;2023-02-28T03:41:42;4.73;;;3.17;;
39620;SDS011;25309;48.686;9.170;2023-02-28T03:44:15;4.93;;;3.30;;
39620;SDS011;25309;48.686;9.170;2023-02-28T03:46:46;4.30;;;3.07;;
39620;SDS011;25309;48.686;9.170;2023-02-28T03:49:18;5.17;;;3.07;;
39620;SDS011;25309;48.686;9.170;2023-02-28T03:51:50;4.73;;;3.30;;
39620;SDS011;25309;48.686;9.170;2023-02-28T03:54:18;4.40;;;3.10;;
39620;SDS011;25309;48.686;9.170;2023-02-28T03:56:51;5.40;;;3.50;;
39620;SDS011;25309;48.686;9.170;2023-02-28T03:59:25;5.27;;;3.10;;
39620;SDS011;25309;48.686;9.170;2023-02-28T04:01:55;4.43;;;2.93;;
39620;SDS011;25309;48.686;9.170;2023-02-28T04:04:24;5.33;;;3.57;;
39620;SDS011;25309;48.686;9.170;2023-02-28T04:06:53;5.27;;;3.30;;
39620;SDS011;25309;48.686;9.170;2023-02-28T04:09:28;4.77;;;3.13;;
39620;SDS011;25309;48.686;9.170;2023-02-28T04:11:55;4.73;;;3.33;;
39620;SDS011;25309;48.686;9.170;2023-02-28T04:14:22;5.50;;;3.53;;
39620;SDS011;25309;48.686;9.170;2023-02-28T04:16:49;5.63;;;3.43;;
39620;SDS011;25309;48.686;9.170;2023-02-28T04:19:17;5.53;;;3.70;;
39620;SDS011;25309;48.686;9.170;2023-02-28T04:21:45;5.53;;;3.50;;
39620;SDS011;25309;48.686;9.170;2023-02-28T04:24:15;5.40;;;3.90;;
39620;SDS011;25309;48.686;9.170;2023-02-28T04:26:43;4.87;;;3.20;;
39620;SDS011;25309;48.686;9.170;2023-02-28T04:29:13;5.70;;;3.80;;
39620;SDS011;25309;48.686;9.170;2023-02-28T04:31:44;6.63;;;3.53;;
39620;SDS011;25309;48.686;9.170;2023-02-28T04:34:11;6.30;;;3.70;;
39620;SDS011;25309;48.686;9.170;2023-02-28T04:36:38;5.70;;;3.57;;
39620;SDS011;25309;48.686;9.170;2023-02-28T04:39:05;5.97;;;3.93;;
39620;SDS011;25309;48.686;9.170;2023-02-28T04:41:34;6.37;;;4.10;;
39620;SDS011;25309;48.686;9.170;2023-02-28T04:44:01;4.60;;;3.60;;
39620;SDS011;25309;48.686;9.170;2023-02-28T04:46:28;4.53;;;3.50;;
39620;SDS011;25309;48.686;9.170;2023-02-28T04:48:55;6.80;;;4.40;;
39620;SDS011;25309;48.686;9.170;2023-02-28T04:51:22;6.17;;;3.87;;
39620;SDS011;25309;48.686;9.170;2023-02-28T04:53:49;5.77;;;4.13;;
39620;SDS011;25309;48.686;9.170;2023-02-28T04:56:16;6.57;;;4.03;;
39620;SDS011;25309;48.686;9.170;2023-02-28T04:58:45;6.30;;;3.77;;
39620;SDS011;25309;48.686;9.170;2023-02-28T05:01:17;5.83;;;4.17;;
39620;SDS011;25309;48.686;9.170;2023-02-28T05:03:46;6.00;;;4.50;;
39620;SDS011;25309;48.686;9.170;2023-02-28T05:06:14;6.23;;;4.03;;
39620;SDS011;25309;48.686;9.170;2023-02-28T05:08:41;6.80;;;4.60;;
39620;SDS011;25309;48.686;9.170;2023-02-28T05:11:12;7.03;;;4.83;;
39620;SDS011;25309;48.686;9.170;2023-02-28T05:13:41;5.70;;;4.17;;
39620;SDS011;25309;48.686;9.170;2023-02-28T05:16:10;6.43;;;4.20;;
39620;SDS011;25309;48.686;9.170;2023-02-28T05:18:37;5.70;;;4.20;;
39620;SDS011;25309;48.686;9.170;2023-02-28T05:21:04;5.50;;;4.17;;
39620;SDS011;25309;48.686;9.170;2023-02-28T05:23:33;6.23;;;4.27;;
39620;SDS011;25309;48.686;9.170;2023-02-28T05:26:52;6.40;;;4.70;;
39620;SDS011;25309;48.686;9.170;2023-02-28T05:30:04;6.67;;;4.10;;
39620;SDS011;25309;48.686;9.170;2023-02-28T05:32:34;6.03;;;4.10;;
39620;SDS011;25309;48.686;9.170;2023-02-28T05:35:01;8.33;;;4.00;;
39620;SDS011;25309;48.686;9.170;2023-02-28T05:37:27;6.17;;;4.27;;
39620;SDS011;25309;48.686;9.170;2023-02-28T05:39:54;7.17;;;4.40;;
39620;SDS011;25309;48.686;9.170;2023-02-28T05:42:21;7.03;;;4.70;;
39620;SDS011;25309;48.686;9.170;2023-02-28T05:44:48;6.80;;;4.27;;
39620;SDS011;25309;48.686;9.170;2023-02-28T05:47:15;9.10;;;4.80;;
39620;SDS011;25309;48.686;9.170;2023-02-28T05:49:44;5.77;;;4.17;;
39620;SDS011;25309;48.686;9.170;2023-02-28T05:52:11;8.23;;;4.70;;
39620;SDS011;25309;48.686;9.170;2023-02-28T05:54:38;8.53;;;4.53;;
39620;SDS011;25309;48.686;9.170;2023-02-28T05:57:05;7.70;;;4.33;;
39620;SDS011;25309;48.686;9.170;2023-02-28T05:59:48;6.70;;;4.50;;
39620;SDS011;25309;48.686;9.170;2023-02-28T06:02:15;6.70;;;4.30;;
39620;SDS011;25309;48.686;9.170;2023-02-28T06:04:44;6.57;;;4.63;;
39620;SDS011;25309;48.686;9.170;2023-02-28T06:07:14;8.20;;;4.47;;
39620;SDS011;25309;48.686;9.170;2023-02-28T06:09:43;7.40;;;4.40;;
39620;SDS011;25309;48.686;9.170;2023-02-28T06:12:10;6.67;;;4.63;;
39620;SDS011;25309;48.686;9.170;2023-02-28T06:14:37;6.70;;;4.53;;
39620;SDS011;25309;48.686;9.170;2023-02-28T06:17:04;8.27;;;5.00;;
39620;SDS011;25309;48.686;9.170;2023-02-28T06:19:31;8.73;;;5.20;;
39620;SDS011;25309;48.686;9.170;2023-02-28T06:21:59;7.00;;;4.80;;
39620;SDS011;25309;48.686;9.170;2023-02-28T06:24:26;7.67;;;4.80;;
39620;SDS011;25309;48.686;9.170;2023-02-28T06:26:57;8.30;;;5.00;;
39620;SDS011;25309;48.686;9.170;2023-02-28T06:29:31;7.70;;;5.10;;
39620;SDS011;25309;48.686;9.170;2023-02-28T06:31:58;8.93;;;5.17;;
39620;SDS011;25309;48.686;9.170;2023-02-28T06:34:26;7.80;;;5.07;;
39620;SDS011;25309;48.686;9.170;2023-02-28T06:36:53;7.57;;;4.97;;
39620;SDS011;25309;48.686;9.170;2023-02-28T06:39:21;10.90;;;5.70;;
39620;SDS011;25309;48.686;9.170;2023-02-28T06:41:48;7.23;;;5.23;;
39620;SDS011;25309;48.686;9.170;2023-02-28T06:44:21;8.63;;;5.57;;
39620;SDS011;25309;48.686;9.170;2023-02-28T06:46:48;7.33;;;5.20;;
39620;SDS011;25309;48.686;9.170;2023-02-28T06:49:16;7.80;;;4.93;;
39620;SDS011;25309;48.686;9.170;2023-02-28T06:51:43;9.87;;;5.53;;
39620;SDS011;25309;48.686;9.170;2023-02-28T06:54:13;8.03;;;5.40;;
39620;SDS011;25309;48.686;9.170;2023-02-28T06:56:41;7.10;;;5.00;;
39620;SDS011;25309;48.686;9.170;2023-02-28T06:59:08;8.30;;;5.97;;
39620;SDS011;25309;48.686;9.170;2023-02-28T07:01:35;9.17;;;5.40;;
39620;SDS011;25309;48.686;9.170;2023-02-28T07:04:02;8.97;;;5.23;;
39620;SDS011;25309;48.686;9.170;2023-02-28T07:06:31;8.97;;;5.60;;
39620;SDS011;25309;48.686;9.170;2023-02-28T07:08:59;10.50;;;5.80;;
39620;SDS011;25309;48.686;9.170;2023-02-28T07:11:27;9.60;;;5.60;;
39620;SDS011;25309;48.686;9.170;2023-02-28T07:13:56;8.50;;;5.33;;
39620;SDS011;25309;48.686;9.170;2023-02-28T07:16:24;8.67;;;5.57;;
39620;SDS011;25309;48.686;9.170;2023-02-28T07:18:52;8.23;;;5.80;;
39620;SDS011;25309;48.686;9.170;2023-02-28T07:21:19;8.13;;;5.40;;
39620;SDS011;25309;48.686;9.170;2023-02-28T07:23:46;7.87;;;5.40;;
39620;SDS011;25309;48.686;9.170;2023-02-28T07:26:14;9.67;;;5.97;;
39620;SDS011;25309;48.686;9.170;2023-02-28T07:28:43;9.20;;;5.90;;
39620;SDS011;25309;48.686;9.170;2023-02-28T07:31:13;9.47;;;5.93;;
39620;SDS011;25309;48.686;9.170;2023-02-28T07:33:41;8.60;;;6.00;;
39620;SDS011;25309;48.686;9.170;2023-02-28T07:36:10;9.30;;;5.63;;
39620;SDS011;25309;48.686;9.170;2023-02-28T07:38:41;9.70;;;5.77;;
39620;SDS011;25309;48.686;9.170;2023-02-28T07:41:13;9.20;;;6.53;;
39620;SDS011;25309;48.686;9.170;2023-02-28T07:43:40;8.97;;;6.13;;
39620;SDS011;25309;48.686;9.170;2023-02-28T07:46:08;9.53;;;6.07;;
39620;SDS011;25309;48.686;9.170;2023-02-28T07:48:38;8.47;;;6.07;;
39620;SDS011;25309;48.686;9.170;2023-02-28T07:51:05;12.93;;;6.37;;
39620;SDS011;25309;48.686;9.170;2023-02-28T07:53:32;10.97;;;6.13;;
39620;SDS011;25309;48.686;9.170;2023-02-28T07:55:59;10.10;;;6.20;;
39620;SDS011;25309;48.686;9.170;2023-02-28T07:58:28;7.83;;;5.63;;
39620;SDS011;25309;48.686;9.170;2023-02-28T08:00:56;9.57;;;6.20;;
39620;SDS011;25309;48.686;9.170;2023-02-28T08:03:24;9.63;;;6.10;;
39620;SDS011;25309;48.686;9.170;2023-02-28T08:05:52;8.10;;;5.93;;
39620;SDS011;25309;48.686;9.170;2023-02-28T08:08:19;8.87;;;6.57;;
39620;SDS011;25309;48.686;9.170;2023-02-28T08:10:46;9.13;;;5.93;;
39620;SDS011;25309;48.686;9.170;2023-02-28T08:13:13;11.17;;;6.80;;
39620;SDS011;25309;48.686;9.170;2023-02-28T08:15:40;11.53;;;6.57;;
39620;SDS011;25309;48.686;9.170;2023-02-28T08:18:08;9.50;;;6.50;;
39620;SDS011;25309;48.686;9.170;2023-02-28T08:20:35;10.07;;;6.43;;
39620;SDS011;25309;48.686;9.170;2023-02-28T08:23:03;9.53;;;7.00;;
39620;SDS011;25309;48.686;9.170;2023-02-28T08:25:30;11.57;;;7.20;;
39620;SDS011;25309;48.686;9.170;2023-02-28T08:27:57;10.53;;;7.03;;
39620;SDS011;25309;48.686;9.170;2023-02-28T08:30:24;10.43;;;6.93;;
39620;SDS011;25309;48.686;9.170;2023-02-28T08:32:51;10.47;;;7.07;;
39620;SDS011;25309;48.686;9.170;2023-02-28T08:35:18;9.03;;;6.60;;
39620;SDS011;25309;48.686;9.170;2023-02-28T08:37:47;9.60;;;6.53;;
39620;SDS011;25309;48.686;9.170;2023-02-28T08:40:15;8.73;;;6.37;;
39620;SDS011;25309;48.686;9.170;2023-02-28T08:42:45;9.97;;;6.97;;
39620;SDS011;25309;48.686;9.170;2023-02-28T08:45:12;11.43;;;7.13;;
39620;SDS011;25309;48.686;9.170;2023-02-28T08:47:40;10.03;;;7.20;;
39620;SDS011;25309;48.686;9.170;2023-02-28T08:50:08;11.13;;;6.30;;
39620;SDS011;25309;48.686;9.170;2023-02-28T08:52:35;10.93;;;6.47;;
39620;SDS011;25309;48.686;9.170;2023-02-28T08:55:02;8.70;;;6.63;;
39620;SDS011;25309;48.686;9.170;2023-02-28T08:57:30;8.40;;;6.63;;
39620;SDS011;25309;48.686;9.170;2023-02-28T08:59:59;10.30;;;6.77;;
39620;SDS011;25309;48.686;9.170;2023-02-28T09:02:25;9.00;;;6.43;;
39620;SDS011;25309;48.686;9.170;2023-02-28T09:04:53;10.67;;;7.30;;
39620;SDS011;25309;48.686;9.170;2023-02-28T09:07:20;9.67;;;6.90;;
39620;SDS011;25309;48.686;9.170;2023-02-28T09:09:47;13.20;;;6.77;;
39620;SDS011;25309;48.686;9.170;2023-02-28T09:12:24;12.97;;;7.53;;
39620;SDS011;25309;48.686;9.170;2023-02-28T09:14:54;11.03;;;7.80;;
39620;SDS011;25309;48.686;9.170;2023-02-28T09:17:21;11.10;;;7.27;;
39620;SDS011;25309;48.686;9.170;2023-02-28T09:19:48;9.93;;;6.50;;
39620;SDS011;25309;48.686;9.170;2023-02-28T09:22:15;9.77;;;6.63;;
39620;SDS011;25309;48.686;9.170;2023-02-28T09:24:42;12.17;;;7.03;;
39620;SDS011;25309;48.686;9.170;2023-02-28T09:27:10;10.93;;;7.23;;
39620;SDS011;25309;48.686;9.170;2023-02-28T09:29:37;8.80;;;6.93;;
39620;SDS011;25309;48.686;9.170;2023-02-28T09:32:06;10.80;;;6.83;;
39620;SDS011;25309;48.686;9.170;2023-02-28T09:34:33;9.73;;;6.73;;
39620;SDS011;25309;48.686;9.170;2023-02-28T09:36:59;11.27;;;7.00;;
39620;SDS011;25309;48.686;9.170;2023-02-28T09:39:26;9.80;;;7.03;;
39620;SDS011;25309;48.686;9.170;2023-02-28T09:41:54;11.43;;;6.80;;
39620;SDS011;25309;48.686;9.170;2023-02-28T09:44:24;11.47;;;7.00;;
39620;SDS011;25309;48.686;9.170;2023-02-28T09:46:57;9.97;;;6.77;;
39620;SDS011;25309;48.686;9.170;2023-02-28T09:49:31;12.60;;;7.50;;
39620;SDS011;25309;48.686;9.170;2023-02-28T09:52:03;10.83;;;6.80;;
39620;SDS011;25309;48.686;9.170;2023-02-28T09:54:35;12.57;;;7.33;;
39620;SDS011;25309;48.686;9.170;2023-02-28T09:57:05;11.10;;;6.90;;
39620;SDS011;25309;48.686;9.170;2023-02-28T09:59:39;10.47;;;7.13;;
39620;SDS011;25309;48.686;9.170;2023-02-28T10:02:19;11.67;;;7.23;;
39620;SDS011;25309;48.686;9.170;2023-02-28T10:05:05;13.07;;;7.57;;
39620;SDS011;25309;48.686;9.170;2023-02-28T10:07:38;13.70;;;8.20;;
39620;SDS011;25309;48.686;9.170;2023-02-28T10:10:18;10.10;;;6.90;;
39620;SDS011;25309;48.686;9.170;2023-02-28T10:12:50;11.40;;;8.17;;
39620;SDS011;25309;48.686;9.170;2023-02-28T10:15:19;11.07;;;7.60;;
39620;SDS011;25309;48.686;9.170;2023-02-28T10:17:49;10.33;;;7.33;;
39620;SDS011;25309;48.686;9.170;2023-02-28T10:20:35;12.63;;;7.30;;
39620;SDS011;25309;48.686;9.170;2023-02-28T10:23:08;10.77;;;7.67;;
39620;SDS011;25309;48.686;9.170;2023-02-28T10:25:40;11.00;;;7.50;;
39620;SDS011;25309;48.686;9.170;2023-02-28T10:28:14;11.60;;;6.80;;
39620;SDS011;25309;48.686;9.170;2023-02-28T10:30:45;9.20;;;7.00;;
39620;SDS011;25309;48.686;9.170;2023-02-28T10:33:21;10.70;;;7.00;;
39620;SDS011;25309;48.686;9.170;2023-02-28T10:35:52;12.17;;;7.37;;
39620;SDS011;25309;48.686;9.170;2023-02-28T10:38:20;10.40;;;7.53;;
39620;SDS011;25309;48.686;9.170;2023-02-28T10:40:48;11.20;;;7.87;;
39620;SDS011;25309;48.686;9.170;2023-02-28T10:43:19;10.53;;;7.00;;
39620;SDS011;25309;48.686;9.170;2023-02-28T10:45:52;10.63;;;7.33;;
39620;SDS011;25309;48.686;9.170;2023-02-28T10:48:29;10.20;;;7.40;;
39620;SDS011;25309;48.686;9.170;2023-02-28T10:51:04;10.07;;;7.27;;
39620;SDS011;25309;48.686;9.170;2023-02-28T10:53:33;12.90;;;7.30;;
39620;SDS011;25309;48.686;9.170;2023-02-28T10:56:23;10.37;;;7.53;;
39620;SDS011;25309;48.686;9.170;2023-02-28T10:58:52;13.23;;;8.33;;
39620;SDS011;25309;48.686;9.170;2023-02-28T11:01:21;9.83;;;7.13;;
39620;SDS011;25309;48.686;9.170;2023-02-28T11:03:50;11.37;;;7.50;;
39620;SDS011;25309;48.686;9.170;2023-02-28T11:06:20;10.73;;;8.20;;
39620;SDS011;25309;48.686;9.170;2023-02-28T11:08:49;12.00;;;7.53;;
39620;SDS011;25309;48.686;9.170;2023-02-28T11:11:19;11.73;;;7.80;;
39620;SDS011;25309;48.686;9.170;2023-02-28T11:13:47;11.73;;;7.90;;
39620;SDS011;25309;48.686;9.170;2023-02-28T11:16:18;10.63;;;7.47;;
39620;SDS011;25309;48.686;9.170;2023-02-28T11:18:48;11.30;;;7.37;;
39620;SDS011;25309;48.686;9.170;2023-02-28T11:21:23;11.87;;;7.20;;
39620;SDS011;25309;48.686;9.170;2023-02-28T11:23:55;11.17;;;7.40;;
39620;SDS011;25309;48.686;9.170;2023-02-28T11:26:37;10.57;;;7.00;;
39620;SDS011;25309;48.686;9.170;2023-02-28T11:29:09;11.37;;;8.17;;
39620;SDS011;25309;48.686;9.170;2023-02-28T11:31:38;9.40;;;7.07;;
39620;SDS011;25309;48.686;9.170;2023-02-28T11:36:51;11.47;;;7.70;;
39620;SDS011;25309;48.686;9.170;2023-02-28T11:39:19;11.40;;;7.60;;
39620;SDS011;25309;48.686;9.170;2023-02-28T11:41:56;11.43;;;6.93;;
39620;SDS011;25309;48.686;9.170;2023-02-28T11:44:44;9.70;;;7.17;;
39620;SDS011;25309;48.686;9.170;2023-02-28T11:47:24;9.80;;;7.37;;
39620;SDS011;25309;48.686;9.170;2023-02-28T11:50:04;8.43;;;6.63;;
39620;SDS011;25309;48.686;9.170;2023-02-28T11:52:44;11.50;;;7.87;;
39620;SDS011;25309;48.686;9.170;2023-02-28T11:55:16;9.43;;;7.00;;
39620;SDS011;25309;48.686;9.170;2023-02-28T11:57:53;9.23;;;7.53;;
39620;SDS011;25309;48.686;9.170;2023-02-28T12:00:55;9.43;;;7.20;;
39620;SDS011;25309;48.686;9.170;2023-02-28T12:03:48;8.80;;;7.63;;
39620;SDS011;25309;48.686;9.170;2023-02-28T12:06:25;8.90;;;6.60;;
39620;SDS011;25309;48.686;9.170;2023-02-28T12:09:10;9.93;;;7.63;;
39620;SDS011;25309;48.686;9.170;2023-02-28T12:11:48;8.67;;;6.90;;
39620;SDS011;25309;48.686;9.170;2023-02-28T12:17:19;8.97;;;7.00;;
39620;SDS011;25309;48.686;9.170;2023-02-28T12:19:55;7.97;;;6.43;;
39620;SDS011;25309;48.686;9.170;2023-02-28T12:22:36;10.33;;;7.47;;
39620;SDS011;25309;48.686;9.170;2023-02-28T12:25:30;8.40;;;7.10;;
39620;SDS011;25309;48.686;9.170;2023-02-28T12:28:15;10.87;;;8.07;;
39620;SDS011;25309;48.686;9.170;2023-02-28T12:30:49;8.13;;;7.23;;
39620;SDS011;25309;48.686;9.170;2023-02-28T12:33:20;9.60;;;7.43;;
39620;SDS011;25309;48.686;9.170;2023-02-28T12:35:52;9.20;;;7.57;;
39620;SDS011;25309;48.686;9.170;2023-02-28T12:38:22;9.73;;;7.57;;
39620;SDS011;25309;48.686;9.170;2023-02-28T12:40:54;9.80;;;6.60;;
39620;SDS011;25309;48.686;9.170;2023-02-28T12:43:27;8.63;;;6.77;;
39620;SDS011;25309;48.686;9.170;2023-02-28T12:45:59;10.00;;;7.60;;
39620;SDS011;25309;48.686;9.170;2023-02-28T12:48:31;8.40;;;6.90;;
39620;SDS011;25309;48.686;9.170;2023-02-28T12:51:05;9.03;;;6.57;;
39620;SDS011;25309;48.686;9.170;2023-02-28T12:53:35;7.83;;;6.87;;
39620;SDS011;25309;48.686;9.170;2023-02-28T12:56:16;8.73;;;7.30;;
39620;SDS011;25309;48.686;9.170;2023-02-28T12:58:47;10.73;;;8.07;;
39620;SDS011;25309;48.686;9.170;2023-02-28T13:01:25;8.90;;;6.80;;
39620;SDS011;25309;48.686;9.170;2023-02-28T13:04:24;7.93;;;6.47;;
39620;SDS011;25309;48.686;9.170;2023-02-28T13:07:05;11.17;;;7.47;;
39620;SDS011;25309;48.686;9.170;2023-02-28T13:09:41;9.10;;;7.47;;
39620;SDS011;25309;48.686;9.170;2023-02-28T13:12:19;8.33;;;6.90;;
39620;SDS011;25309;48.686;9.170;2023-02-28T13:14:49;10.00;;;7.07;;
39620;SDS011;25309;48.686;9.170;2023-02-28T13:17:17;9.13;;;6.90;;
39620;SDS011;25309;48.686;9.170;2023-02-28T13:19:58;9.87;;;8.10;;
39620;SDS011;25309;48.686;9.170;2023-02-28T13:22:39;8.60;;;7.07;;
39620;SDS011;25309;48.686;9.170;2023-02-28T13:28:56;8.37;;;7.47;;
39620;SDS011;25309;48.686;9.170;2023-02-28T13:31:31;9.27;;;7.13;;
39620;SDS011;25309;48.686;9.170;2023-02-28T13:34:13;8.60;;;7.20;;
39620;SDS011;25309;48.686;9.170;2023-02-28T13:36:41;10.23;;;7.60;;
39620;SDS011;25309;48.686;9.170;2023-02-28T13:42:22;10.73;;;7.80;;
39620;SDS011;25309;48.686;9.170;2023-02-28T13:47:51;8.47;;;7.33;;
39620;SDS011;25309;48.686;9.170;2023-02-28T13:50:21;8.90;;;7.37;;
39620;SDS011;25309;48.686;9.170;2023-02-28T13:55:53;9.73;;;7.20;;
39620;SDS011;25309;48.686;9.170;2023-02-28T13:58:31;9.10;;;7.03;;
39620;SDS011;25309;48.686;9.170;2023-02-28T14:01:11;8.70;;;7.20;;
39620;SDS011;25309;48.686;9.170;2023-02-28T14:03:54;9.13;;;7.03;;
39620;SDS011;25309;48.686;9.170;2023-02-28T14:06:33;11.67;;;7.17;;
39620;SDS011;25309;48.686;9.170;2023-02-28T14:09:03;28.40;;;10.30;;
39620;SDS011;25309;48.686;9.170;2023-02-28T14:11:43;14.53;;;8.30;;
39620;SDS011;25309;48.686;9.170;2023-02-28T14:17:12;8.80;;;7.83;;
39620;SDS011;25309;48.686;9.170;2023-02-28T14:19:43;8.03;;;6.80;;
39620;SDS011;25309;48.686;9.170;2023-02-28T14:22:18;8.80;;;7.40;;
39620;SDS011;25309;48.686;9.170;2023-02-28T14:25:08;7.73;;;6.93;;
39620;SDS011;25309;48.686;9.170;2023-02-28T14:27:44;10.23;;;7.67;;
39620;SDS011;25309;48.686;9.170;2023-02-28T14:38:41;8.90;;;6.50;;
39620;SDS011;25309;48.686;9.170;2023-02-28T14:41:19;7.60;;;6.77;;
39620;SDS011;25309;48.686;9.170;2023-02-28T14:43:53;8.80;;;7.17;;
39620;SDS011;25309;48.686;9.170;2023-02-28T14:46:22;9.40;;;7.47;;
39620;SDS011;25309;48.686;9.170;2023-02-28T14:48:55;9.70;;;7.43;;
39620;SDS011;25309;48.686;9.170;2023-02-28T14:51:23;10.70;;;7.00;;
39620;SDS011;25309;48.686;9.170;2023-02-28T14:53:52;10.30;;;7.37;;
39620;SDS011;25309;48.686;9.170;2023-02-28T14:56:24;9.10;;;6.93;;
39620;SDS011;25309;48.686;9.170;2023-02-28T14:58:53;9.67;;;7.10;;
39620;SDS011;25309;48.686;9.170;2023-02-28T15:01:22;9.47;;;7.17;;
39620;SDS011;25309;48.686;9.170;2023-02-28T15:03:58;8.60;;;7.43;;
39620;SDS011;25309;48.686;9.170;2023-02-28T15:06:27;9.23;;;7.20;;
39620;SDS011;25309;48.686;9.170;2023-02-28T15:09:09;8.30;;;7.00;;
39620;SDS011;25309;48.686;9.170;2023-02-28T15:11:37;8.70;;;6.93;;
39620;SDS011;25309;48.686;9.170;2023-02-28T15:14:05;7.50;;;6.73;;
39620;SDS011;25309;48.686;9.170;2023-02-28T15:16:34;7.53;;;6.60;;
39620;SDS011;25309;48.686;9.170;2023-02-28T15:19:06;8.20;;;6.97;;
39620;SDS011;25309;48.686;9.170;2023-02-28T15:21:40;8.57;;;6.70;;
39620;SDS011;25309;48.686;9.170;2023-02-28T15:24:10;11.70;;;8.10;;
39620;SDS011;25309;48.686;9.170;2023-02-28T15:26:43;9.83;;;7.07;;
39620;SDS011;25309;48.686;9.170;2023-02-28T15:29:13;10.33;;;6.80;;
39620;SDS011;25309;48.686;9.170;2023-02-28T15:31:45;8.93;;;6.97;;
39620;SDS011;25309;48.686;9.170;2023-02-28T15:34:28;9.83;;;7.23;;
39620;SDS011;25309;48.686;9.170;2023-02-28T15:39:56;9.63;;;7.00;;
39620;SDS011;25309;48.686;9.170;2023-02-28T15:42:27;8.63;;;6.93;;
39620;SDS011;25309;48.686;9.170;2023-02-28T15:44:56;10.03;;;7.97;;
39620;SDS011;25309;48.686;9.170;2023-02-28T15:47:24;8.63;;;6.93;;
39620;SDS011;25309;48.686;9.170;2023-02-28T15:49:54;10.50;;;6.83;;